Rifle, CO (81650)

3:26 PM MDT on August 03, 2015 (GMT -0600)
Taughenbaugh Mesa | | Change Station
CLOSE
Current Station
Personal Weather Station
Location: Rifle, CO
Elevation: 5650 ft
Nearby Weather Stations

Elev 5650 ft 39.50 °N, 107.85 °W | Updated 2 seconds ago

Light Rain
Light Rain
75.0 °F
Feels Like 77 °F
N
8.0
Wind Variable Wind from East
Gusts 12.0 mph

Today
High -- | Low -- °F
--% Chance of Precip.
Yesterday
High -- | Low -- °F
Precip. -- in
6:12 AM 8:21 PM
Waning Gibbous, 84% visible
Pressure 30.13 in
Visibility 4.0 miles
Clouds Few 1500 ft
Mostly Cloudy 7000 ft
Overcast 8500 ft
Heat Index 77 °F
Dew Point 62 °F
Humidity 63%
Rainfall 0.09 in
Snow Depth Not available.
UV 3 out of 12
Pollen 4.90 out of 12
Air Quality Not available.
Flu Activity Not available.
SPECI KRIL 032104Z AUTO 12012KT 4SM VCTS -RA FEW015 BKN070 OVC085 21/14 A3013 RMK AO2 LTG DSNT E RAB2056 TSE04 P0004 T02110144

More Conditions Fewer Conditions

Pressure 30.13 in
Visibility 4.0 miles
Clouds Few 1500 ft
Mostly Cloudy 7000 ft
Overcast 8500 ft
Heat Index 77 °F
Dew Point 62 °F
Humidity 63%
Rainfall 0.09 in
Snow Depth Not available.
UV 3 out of 12
Pollen 4.90 out of 12
Air Quality Not available.
Flu Activity Not available.
SPECI KRIL 032104Z AUTO 12012KT 4SM VCTS -RA FEW015 BKN070 OVC085 21/14 A3013 RMK AO2 LTG DSNT E RAB2056 TSE04 P0004 T02110144

More Conditions Fewer Conditions

10-Day Weather Forecast

×

Almanac

Astronomy

Aug. 03, 2015 Rise Set
Actual Time
Civil Twilight
Nautical Twilight
Astronomical Twilight
Moon
Length of Visible Light
Length of Day
Tomorrow will be .
, % of the Moon is Illuminated

Today's Extremes

State Highs State Lows

Community

WunderPhotos

Upload Photos

1,843,770 photos uploaded!

WunderBlogs® & News

Nearby

Air Quality

  Air Quality AQ Index Pollutant
Not available.

Snow Depth

Station Depth Elevation

Earthquake Activity

City Distance Mag. Time & Date
Minimum magnitude displayed is 2.5.

Coastal Water Temperatures

Place Temperature

Stations

Nearby Weather Stations

Station Location Temp. Windchill Dew Point Humidity Wind Precip. Elev Updated Type